sensor_id;sensor_type;location;lat;lon;timestamp;pressure;altitude;pressure_sealevel;temperature;humidity
60244;BME280;46106;51.468;5.814;2023-03-26T00:00:35;100400.22;;;8.57;100.00
60244;BME280;46106;51.468;5.814;2023-03-26T00:03:02;100394.50;;;8.49;100.00
60244;BME280;46106;51.468;5.814;2023-03-26T00:05:29;100396.59;;;8.45;100.00
60244;BME280;46106;51.468;5.814;2023-03-26T00:07:56;100401.72;;;8.50;100.00
60244;BME280;46106;51.468;5.814;2023-03-26T00:10:22;100397.00;;;8.52;100.00
60244;BME280;46106;51.468;5.814;2023-03-26T00:12:47;100404.78;;;8.45;100.00
60244;BME280;46106;51.468;5.814;2023-03-26T00:15:13;100395.00;;;8.43;100.00
60244;BME280;46106;51.468;5.814;2023-03-26T00:17:38;100392.47;;;8.40;100.00
60244;BME280;46106;51.468;5.814;2023-03-26T00:20:04;100399.53;;;8.42;100.00
60244;BME280;46106;51.468;5.814;2023-03-26T00:22:32;100398.34;;;8.46;100.00
60244;BME280;46106;51.468;5.814;2023-03-26T00:24:57;100393.22;;;8.42;100.00
60244;BME280;46106;51.468;5.814;2023-03-26T00:27:23;100392.16;;;8.44;100.00
60244;BME280;46106;51.468;5.814;2023-03-26T00:29:49;100395.09;;;8.41;100.00
60244;BME280;46106;51.468;5.814;2023-03-26T00:32:14;100387.75;;;8.42;100.00
60244;BME280;46106;51.468;5.814;2023-03-26T00:34:41;100380.56;;;8.41;100.00
60244;BME280;46106;51.468;5.814;2023-03-26T00:37:06;100380.63;;;8.52;100.00
60244;BME280;46106;51.468;5.814;2023-03-26T00:39:33;100380.34;;;8.44;100.00
60244;BME280;46106;51.468;5.814;2023-03-26T00:42:02;100377.41;;;8.47;100.00
60244;BME280;46106;51.468;5.814;2023-03-26T00:44:32;100375.41;;;8.49;100.00
60244;BME280;46106;51.468;5.814;2023-03-26T00:46:58;100374.97;;;8.42;100.00
60244;BME280;46106;51.468;5.814;2023-03-26T00:49:24;100358.59;;;8.31;100.00
60244;BME280;46106;51.468;5.814;2023-03-26T00:51:51;100371.19;;;8.45;100.00
60244;BME280;46106;51.468;5.814;2023-03-26T00:54:17;100365.09;;;8.41;100.00
60244;BME280;46106;51.468;5.814;2023-03-26T00:56:43;100374.47;;;8.37;100.00
60244;BME280;46106;51.468;5.814;2023-03-26T00:59:08;100366.19;;;8.39;100.00
60244;BME280;46106;51.468;5.814;2023-03-26T01:01:34;100367.72;;;8.19;100.00
60244;BME280;46106;51.468;5.814;2023-03-26T01:04:38;100363.13;;;8.19;100.00
60244;BME280;46106;51.468;5.814;2023-03-26T01:07:09;100353.94;;;8.09;100.00
60244;BME280;46106;51.468;5.814;2023-03-26T01:09:39;100354.22;;;8.17;100.00
60244;BME280;46106;51.468;5.814;2023-03-26T01:12:10;100357.16;;;8.14;100.00
60244;BME280;46106;51.468;5.814;2023-03-26T01:14:38;100350.84;;;8.14;100.00
60244;BME280;46106;51.468;5.814;2023-03-26T01:17:06;100353.06;;;8.08;100.00
60244;BME280;46106;51.468;5.814;2023-03-26T01:22:14;100332.75;;;8.13;100.00
60244;BME280;46106;51.468;5.814;2023-03-26T01:24:41;100327.88;;;8.05;100.00
60244;BME280;46106;51.468;5.814;2023-03-26T01:27:36;100329.63;;;8.06;100.00
60244;BME280;46106;51.468;5.814;2023-03-26T01:30:24;100321.16;;;7.98;100.00
60244;BME280;46106;51.468;5.814;2023-03-26T01:33:20;100315.59;;;7.99;100.00
60244;BME280;46106;51.468;5.814;2023-03-26T01:35:59;100313.00;;;7.98;100.00
60244;BME280;46106;51.468;5.814;2023-03-26T01:41:32;100304.66;;;7.88;100.00
60244;BME280;46106;51.468;5.814;2023-03-26T01:44:16;100300.84;;;7.90;100.00
60244;BME280;46106;51.468;5.814;2023-03-26T01:46:45;100293.81;;;7.75;100.00
60244;BME280;46106;51.468;5.814;2023-03-26T01:49:11;100296.44;;;7.77;100.00
60244;BME280;46106;51.468;5.814;2023-03-26T01:51:40;100297.28;;;7.66;100.00
60244;BME280;46106;51.468;5.814;2023-03-26T01:54:10;100294.16;;;7.70;100.00
60244;BME280;46106;51.468;5.814;2023-03-26T02:02:30;100299.88;;;7.67;100.00
60244;BME280;46106;51.468;5.814;2023-03-26T02:05:18;100295.53;;;7.65;100.00
60244;BME280;46106;51.468;5.814;2023-03-26T02:08:07;100281.84;;;7.53;100.00
60244;BME280;46106;51.468;5.814;2023-03-26T02:10:40;100281.50;;;7.58;100.00
60244;BME280;46106;51.468;5.814;2023-03-26T02:13:08;100278.78;;;7.58;100.00
60244;BME280;46106;51.468;5.814;2023-03-26T02:15:34;100280.63;;;7.58;100.00
60244;BME280;46106;51.468;5.814;2023-03-26T02:18:00;100279.91;;;7.67;100.00
60244;BME280;46106;51.468;5.814;2023-03-26T02:20:28;100275.59;;;7.64;100.00
60244;BME280;46106;51.468;5.814;2023-03-26T02:22:55;100261.69;;;7.56;100.00
60244;BME280;46106;51.468;5.814;2023-03-26T02:25:21;100260.38;;;7.49;100.00
60244;BME280;46106;51.468;5.814;2023-03-26T02:27:48;100250.09;;;7.41;100.00
60244;BME280;46106;51.468;5.814;2023-03-26T02:30:17;100243.66;;;7.42;100.00
60244;BME280;46106;51.468;5.814;2023-03-26T02:32:43;100234.84;;;7.39;100.00
60244;BME280;46106;51.468;5.814;2023-03-26T02:35:10;100240.00;;;7.54;100.00
60244;BME280;46106;51.468;5.814;2023-03-26T02:37:36;100237.00;;;7.46;100.00
60244;BME280;46106;51.468;5.814;2023-03-26T02:40:02;100231.50;;;7.35;100.00
60244;BME280;46106;51.468;5.814;2023-03-26T02:42:30;100227.13;;;7.32;100.00
60244;BME280;46106;51.468;5.814;2023-03-26T02:44:55;100234.09;;;7.36;100.00
60244;BME280;46106;51.468;5.814;2023-03-26T02:47:21;100222.16;;;7.26;100.00
60244;BME280;46106;51.468;5.814;2023-03-26T02:49:46;100226.78;;;7.37;100.00
60244;BME280;46106;51.468;5.814;2023-03-26T02:52:12;100223.97;;;7.39;100.00
60244;BME280;46106;51.468;5.814;2023-03-26T02:54:41;100216.66;;;7.39;100.00
60244;BME280;46106;51.468;5.814;2023-03-26T02:57:06;100192.69;;;7.20;100.00
60244;BME280;46106;51.468;5.814;2023-03-26T02:59:32;100214.16;;;7.36;100.00
60244;BME280;46106;51.468;5.814;2023-03-26T03:01:57;100202.28;;;7.37;100.00
60244;BME280;46106;51.468;5.814;2023-03-26T03:04:23;100199.22;;;7.42;100.00
60244;BME280;46106;51.468;5.814;2023-03-26T03:06:48;100190.41;;;7.38;100.00
60244;BME280;46106;51.468;5.814;2023-03-26T03:09:17;100200.06;;;7.42;100.00
60244;BME280;46106;51.468;5.814;2023-03-26T03:11:43;100186.00;;;7.48;100.00
60244;BME280;46106;51.468;5.814;2023-03-26T03:14:08;100190.47;;;7.49;100.00
60244;BME280;46106;51.468;5.814;2023-03-26T03:16:34;100183.63;;;7.44;100.00
60244;BME280;46106;51.468;5.814;2023-03-26T03:18:59;100183.00;;;7.40;100.00
60244;BME280;46106;51.468;5.814;2023-03-26T03:21:30;100175.56;;;7.42;100.00
60244;BME280;46106;51.468;5.814;2023-03-26T03:23:56;100170.97;;;7.43;100.00
60244;BME280;46106;51.468;5.814;2023-03-26T03:26:23;100171.50;;;7.48;100.00
60244;BME280;46106;51.468;5.814;2023-03-26T03:28:56;100170.50;;;7.49;100.00
60244;BME280;46106;51.468;5.814;2023-03-26T03:31:22;100157.28;;;7.55;100.00
60244;BME280;46106;51.468;5.814;2023-03-26T03:33:49;100158.66;;;7.61;100.00
60244;BME280;46106;51.468;5.814;2023-03-26T03:36:17;100160.38;;;7.62;100.00
60244;BME280;46106;51.468;5.814;2023-03-26T03:38:43;100150.63;;;7.60;100.00
60244;BME280;46106;51.468;5.814;2023-03-26T03:41:10;100149.59;;;7.61;100.00
60244;BME280;46106;51.468;5.814;2023-03-26T03:43:35;100139.72;;;7.60;100.00
60244;BME280;46106;51.468;5.814;2023-03-26T03:46:04;100143.81;;;7.65;100.00
60244;BME280;46106;51.468;5.814;2023-03-26T03:48:29;100137.38;;;7.66;100.00
60244;BME280;46106;51.468;5.814;2023-03-26T03:50:55;100139.47;;;7.63;100.00
60244;BME280;46106;51.468;5.814;2023-03-26T03:53:22;100137.25;;;7.68;100.00
60244;BME280;46106;51.468;5.814;2023-03-26T03:55:52;100120.41;;;7.63;100.00
60244;BME280;46106;51.468;5.814;2023-03-26T03:58:20;100119.78;;;7.70;100.00
60244;BME280;46106;51.468;5.814;2023-03-26T04:00:50;100128.06;;;7.69;100.00
60244;BME280;46106;51.468;5.814;2023-03-26T04:03:16;100115.56;;;7.66;100.00
60244;BME280;46106;51.468;5.814;2023-03-26T04:05:42;100098.72;;;7.61;100.00
60244;BME280;46106;51.468;5.814;2023-03-26T04:08:14;100115.56;;;7.66;100.00
60244;BME280;46106;51.468;5.814;2023-03-26T04:10:40;100115.34;;;7.69;100.00
60244;BME280;46106;51.468;5.814;2023-03-26T04:13:08;100115.47;;;7.68;100.00
60244;BME280;46106;51.468;5.814;2023-03-26T04:15:33;100112.50;;;7.71;100.00
60244;BME280;46106;51.468;5.814;2023-03-26T04:18:02;100101.72;;;7.69;100.00
60244;BME280;46106;51.468;5.814;2023-03-26T04:20:28;100103.31;;;7.72;100.00
60244;BME280;46106;51.468;5.814;2023-03-26T04:22:53;100098.78;;;7.84;100.00
60244;BME280;46106;51.468;5.814;2023-03-26T04:25:19;100082.16;;;7.76;100.00
60244;BME280;46106;51.468;5.814;2023-03-26T04:27:46;100080.28;;;7.76;100.00
60244;BME280;46106;51.468;5.814;2023-03-26T04:30:15;100083.03;;;7.76;100.00
60244;BME280;46106;51.468;5.814;2023-03-26T04:32:44;100082.91;;;7.78;100.00
60244;BME280;46106;51.468;5.814;2023-03-26T04:35:14;100081.41;;;7.85;100.00
60244;BME280;46106;51.468;5.814;2023-03-26T04:37:41;100083.53;;;7.93;100.00
60244;BME280;46106;51.468;5.814;2023-03-26T04:40:17;100065.91;;;7.97;100.00
60244;BME280;46106;51.468;5.814;2023-03-26T04:42:44;100059.59;;;8.07;100.00
60244;BME280;46106;51.468;5.814;2023-03-26T04:45:12;100061.47;;;8.07;100.00
60244;BME280;46106;51.468;5.814;2023-03-26T04:47:38;100052.56;;;7.94;100.00
60244;BME280;46106;51.468;5.814;2023-03-26T04:50:07;100055.25;;;8.05;100.00
60244;BME280;46106;51.468;5.814;2023-03-26T04:52:33;100050.19;;;7.89;100.00
60244;BME280;46106;51.468;5.814;2023-03-26T04:55:00;100045.59;;;8.01;100.00
60244;BME280;46106;51.468;5.814;2023-03-26T04:57:33;100043.50;;;8.04;100.00
60244;BME280;46106;51.468;5.814;2023-03-26T05:00:04;100040.16;;;7.89;100.00
60244;BME280;46106;51.468;5.814;2023-03-26T05:02:39;100032.34;;;7.85;100.00
60244;BME280;46106;51.468;5.814;2023-03-26T05:05:06;100028.16;;;7.92;100.00
60244;BME280;46106;51.468;5.814;2023-03-26T05:07:31;100022.66;;;8.03;100.00
60244;BME280;46106;51.468;5.814;2023-03-26T05:09:57;100028.53;;;7.99;100.00
60244;BME280;46106;51.468;5.814;2023-03-26T05:12:22;100022.59;;;7.94;100.00
60244;BME280;46106;51.468;5.814;2023-03-26T05:14:48;100012.28;;;7.86;100.00
60244;BME280;46106;51.468;5.814;2023-03-26T05:17:14;100017.50;;;7.89;100.00
60244;BME280;46106;51.468;5.814;2023-03-26T05:19:43;100018.47;;;7.99;100.00
60244;BME280;46106;51.468;5.814;2023-03-26T05:22:09;100010.16;;;8.01;100.00
60244;BME280;46106;51.468;5.814;2023-03-26T05:24:34;100008.06;;;7.93;100.00
60244;BME280;46106;51.468;5.814;2023-03-26T05:27:03;100003.09;;;7.87;100.00
60244;BME280;46106;51.468;5.814;2023-03-26T05:29:28;99998.78;;;7.96;100.00
60244;BME280;46106;51.468;5.814;2023-03-26T05:31:53;99992.97;;;8.00;100.00
60244;BME280;46106;51.468;5.814;2023-03-26T05:34:19;99984.88;;;8.10;100.00
60244;BME280;46106;51.468;5.814;2023-03-26T05:36:48;99975.81;;;8.09;100.00
60244;BME280;46106;51.468;5.814;2023-03-26T05:39:14;99966.81;;;7.98;100.00
60244;BME280;46106;51.468;5.814;2023-03-26T05:41:40;99968.53;;;8.10;100.00
60244;BME280;46106;51.468;5.814;2023-03-26T05:44:05;99967.25;;;8.14;100.00
60244;BME280;46106;51.468;5.814;2023-03-26T05:46:31;99951.06;;;7.90;100.00
60244;BME280;46106;51.468;5.814;2023-03-26T05:48:56;99958.16;;;7.93;100.00
60244;BME280;46106;51.468;5.814;2023-03-26T05:51:22;99948.59;;;7.98;100.00
60244;BME280;46106;51.468;5.814;2023-03-26T05:53:47;99952.56;;;7.94;100.00
60244;BME280;46106;51.468;5.814;2023-03-26T05:56:13;99953.19;;;7.86;100.00
60244;BME280;46106;51.468;5.814;2023-03-26T05:58:38;99941.16;;;8.00;100.00
60244;BME280;46106;51.468;5.814;2023-03-26T06:01:11;99948.31;;;8.01;100.00
60244;BME280;46106;51.468;5.814;2023-03-26T06:03:42;99944.13;;;8.08;100.00
60244;BME280;46106;51.468;5.814;2023-03-26T06:06:16;99938.03;;;8.05;100.00
60244;BME280;46106;51.468;5.814;2023-03-26T06:08:47;99935.19;;;8.06;100.00
60244;BME280;46106;51.468;5.814;2023-03-26T06:11:14;99920.47;;;7.98;100.00
60244;BME280;46106;51.468;5.814;2023-03-26T06:13:40;99919.34;;;8.00;100.00
60244;BME280;46106;51.468;5.814;2023-03-26T06:16:11;99927.41;;;8.02;100.00
60244;BME280;46106;51.468;5.814;2023-03-26T06:18:37;99910.78;;;8.05;100.00
60244;BME280;46106;51.468;5.814;2023-03-26T06:21:04;99918.81;;;8.06;100.00
60244;BME280;46106;51.468;5.814;2023-03-26T06:23:30;99911.31;;;7.99;100.00
60244;BME280;46106;51.468;5.814;2023-03-26T06:25:56;99898.56;;;7.88;100.00
60244;BME280;46106;51.468;5.814;2023-03-26T06:28:22;99907.56;;;8.00;100.00
60244;BME280;46106;51.468;5.814;2023-03-26T06:30:48;99909.56;;;7.98;100.00
60244;BME280;46106;51.468;5.814;2023-03-26T06:33:13;99914.41;;;7.94;100.00
60244;BME280;46106;51.468;5.814;2023-03-26T06:35:39;99910.53;;;7.97;100.00
60244;BME280;46106;51.468;5.814;2023-03-26T06:38:04;99917.91;;;7.73;100.00
60244;BME280;46106;51.468;5.814;2023-03-26T06:40:32;99907.78;;;7.76;100.00
60244;BME280;46106;51.468;5.814;2023-03-26T06:42:57;99910.75;;;7.72;100.00
60244;BME280;46106;51.468;5.814;2023-03-26T06:45:26;99904.41;;;7.72;100.00
60244;BME280;46106;51.468;5.814;2023-03-26T06:47:51;99901.22;;;7.67;100.00
60244;BME280;46106;51.468;5.814;2023-03-26T06:50:17;99908.75;;;7.75;100.00
60244;BME280;46106;51.468;5.814;2023-03-26T06:52:42;99909.88;;;7.72;100.00
60244;BME280;46106;51.468;5.814;2023-03-26T06:55:08;99914.09;;;7.65;100.00
60244;BME280;46106;51.468;5.814;2023-03-26T06:57:35;99913.38;;;7.63;100.00
60244;BME280;46106;51.468;5.814;2023-03-26T07:00:00;99905.44;;;7.60;100.00
60244;BME280;46106;51.468;5.814;2023-03-26T07:02:29;99899.88;;;7.61;100.00
60244;BME280;46106;51.468;5.814;2023-03-26T07:04:54;99898.38;;;7.57;100.00
60244;BME280;46106;51.468;5.814;2023-03-26T07:07:19;99900.97;;;7.59;100.00
60244;BME280;46106;51.468;5.814;2023-03-26T07:09:48;99904.31;;;7.62;100.00
60244;BME280;46106;51.468;5.814;2023-03-26T07:12:13;99910.63;;;7.63;100.00
60244;BME280;46106;51.468;5.814;2023-03-26T07:14:39;99892.31;;;7.65;100.00
60244;BME280;46106;51.468;5.814;2023-03-26T07:17:05;99894.66;;;7.69;100.00
60244;BME280;46106;51.468;5.814;2023-03-26T07:19:30;99900.22;;;7.68;100.00
60244;BME280;46106;51.468;5.814;2023-03-26T07:21:56;99891.03;;;7.69;100.00
60244;BME280;46106;51.468;5.814;2023-03-26T07:24:22;99892.88;;;7.80;100.00
60244;BME280;46106;51.468;5.814;2023-03-26T07:27:01;99889.78;;;7.84;100.00
60244;BME280;46106;51.468;5.814;2023-03-26T07:32:14;99882.72;;;7.82;100.00
60244;BME280;46106;51.468;5.814;2023-03-26T07:34:49;99882.47;;;7.85;100.00
60244;BME280;46106;51.468;5.814;2023-03-26T07:37:28;99875.41;;;7.94;100.00
60244;BME280;46106;51.468;5.814;2023-03-26T07:40:00;99882.13;;;8.10;100.00
60244;BME280;46106;51.468;5.814;2023-03-26T07:45:24;99874.47;;;8.04;100.00
60244;BME280;46106;51.468;5.814;2023-03-26T07:47:53;99870.19;;;7.90;100.00
60244;BME280;46106;51.468;5.814;2023-03-26T07:50:22;99872.13;;;8.00;100.00
60244;BME280;46106;51.468;5.814;2023-03-26T07:52:48;99871.88;;;8.03;100.00
60244;BME280;46106;51.468;5.814;2023-03-26T07:55:14;99878.81;;;8.07;100.00
60244;BME280;46106;51.468;5.814;2023-03-26T07:57:58;99875.75;;;8.00;100.00
60244;BME280;46106;51.468;5.814;2023-03-26T08:00:40;99858.78;;;7.85;100.00
60244;BME280;46106;51.468;5.814;2023-03-26T08:08:52;99858.84;;;8.06;100.00
60244;BME280;46106;51.468;5.814;2023-03-26T08:11:53;99860.97;;;8.03;100.00
60244;BME280;46106;51.468;5.814;2023-03-26T08:17:04;99850.50;;;8.19;100.00
60244;BME280;46106;51.468;5.814;2023-03-26T08:19:43;99854.06;;;8.20;100.00
60244;BME280;46106;51.468;5.814;2023-03-26T08:22:24;99850.97;;;8.24;100.00
60244;BME280;46106;51.468;5.814;2023-03-26T08:25:15;99856.41;;;8.24;100.00
60244;BME280;46106;51.468;5.814;2023-03-26T08:30:29;99848.47;;;8.00;100.00
60244;BME280;46106;51.468;5.814;2023-03-26T08:33:08;99847.25;;;8.25;100.00
60244;BME280;46106;51.468;5.814;2023-03-26T08:35:35;99842.84;;;8.34;100.00
60244;BME280;46106;51.468;5.814;2023-03-26T08:38:07;99845.56;;;8.45;100.00
60244;BME280;46106;51.468;5.814;2023-03-26T08:49:40;99841.88;;;8.35;100.00
60244;BME280;46106;51.468;5.814;2023-03-26T09:23:51;99831.59;;;8.27;100.00
60244;BME280;46106;51.468;5.814;2023-03-26T09:37:38;99829.75;;;8.07;100.00
60244;BME280;46106;51.468;5.814;2023-03-26T09:48:16;99819.38;;;8.22;100.00
60244;BME280;46106;51.468;5.814;2023-03-26T09:56:21;99833.06;;;8.10;100.00
60244;BME280;46106;51.468;5.814;2023-03-26T09:59:08;99819.19;;;8.14;100.00
60244;BME280;46106;51.468;5.814;2023-03-26T10:07:51;99820.59;;;7.97;100.00
60244;BME280;46106;51.468;5.814;2023-03-26T10:13:25;99818.38;;;8.02;100.00
60244;BME280;46106;51.468;5.814;2023-03-26T10:16:09;99820.41;;;8.09;100.00
60244;BME280;46106;51.468;5.814;2023-03-26T10:18:48;99812.78;;;8.24;100.00
60244;BME280;46106;51.468;5.814;2023-03-26T10:39:11;99827.47;;;8.12;100.00
60244;BME280;46106;51.468;5.814;2023-03-26T10:44:39;99825.91;;;7.98;100.00
60244;BME280;46106;51.468;5.814;2023-03-26T10:47:33;99829.91;;;7.94;100.00
60244;BME280;46106;51.468;5.814;2023-03-26T10:56:13;99828.97;;;8.05;100.00
60244;BME280;46106;51.468;5.814;2023-03-26T10:58:42;99837.38;;;7.92;100.00
60244;BME280;46106;51.468;5.814;2023-03-26T11:04:37;99832.69;;;8.57;100.00
60244;BME280;46106;51.468;5.814;2023-03-26T11:07:30;99825.28;;;8.59;100.00
60244;BME280;46106;51.468;5.814;2023-03-26T11:10:02;99836.84;;;8.73;100.00
60244;BME280;46106;51.468;5.814;2023-03-26T11:12:51;99838.72;;;8.82;100.00
60244;BME280;46106;51.468;5.814;2023-03-26T11:15:30;99833.44;;;8.59;100.00
60244;BME280;46106;51.468;5.814;2023-03-26T11:20:50;99845.69;;;8.65;100.00
60244;BME280;46106;51.468;5.814;2023-03-26T11:23:44;99847.16;;;8.48;100.00
60244;BME280;46106;51.468;5.814;2023-03-26T11:26:16;99843.88;;;8.33;100.00
60244;BME280;46106;51.468;5.814;2023-03-26T11:29:04;99852.88;;;8.13;100.00
60244;BME280;46106;51.468;5.814;2023-03-26T11:32:19;99845.69;;;8.12;100.00
60244;BME280;46106;51.468;5.814;2023-03-26T11:34:31;99852.75;;;8.14;100.00
60244;BME280;46106;51.468;5.814;2023-03-26T11:37:00;99854.28;;;8.07;100.00
60244;BME280;46106;51.468;5.814;2023-03-26T11:40:08;99842.81;;;8.13;100.00
60244;BME280;46106;51.468;5.814;2023-03-26T11:42:28;99855.81;;;8.21;100.00
60244;BME280;46106;51.468;5.814;2023-03-26T11:45:01;99853.56;;;8.26;100.00
60244;BME280;46106;51.468;5.814;2023-03-26T11:47:41;99850.38;;;8.42;100.00
60244;BME280;46106;51.468;5.814;2023-03-26T11:50:30;99857.50;;;8.01;100.00
60244;BME280;46106;51.468;5.814;2023-03-26T11:53:08;99859.66;;;7.97;100.00
60244;BME280;46106;51.468;5.814;2023-03-26T11:55:39;99862.13;;;8.21;100.00
60244;BME280;46106;51.468;5.814;2023-03-26T11:58:20;99863.53;;;8.48;100.00
60244;BME280;46106;51.468;5.814;2023-03-26T12:00:50;99865.13;;;8.39;100.00
60244;BME280;46106;51.468;5.814;2023-03-26T12:03:18;99865.34;;;8.26;100.00
60244;BME280;46106;51.468;5.814;2023-03-26T12:05:50;99864.28;;;8.39;100.00
60244;BME280;46106;51.468;5.814;2023-03-26T12:08:27;99865.50;;;8.46;100.00
60244;BME280;46106;51.468;5.814;2023-03-26T12:11:01;99852.03;;;8.12;100.00
60244;BME280;46106;51.468;5.814;2023-03-26T12:13:38;99869.44;;;8.53;100.00
60244;BME280;46106;51.468;5.814;2023-03-26T12:16:08;99869.25;;;8.45;100.00
60244;BME280;46106;51.468;5.814;2023-03-26T12:18:37;99851.03;;;8.34;100.00
60244;BME280;46106;51.468;5.814;2023-03-26T12:21:16;99874.00;;;8.74;100.00
60244;BME280;46106;51.468;5.814;2023-03-26T12:23:54;99842.75;;;8.57;100.00
60244;BME280;46106;51.468;5.814;2023-03-26T12:26:34;99860.91;;;8.89;100.00
60244;BME280;46106;51.468;5.814;2023-03-26T12:29:13;99872.09;;;8.64;100.00
60244;BME280;46106;51.468;5.814;2023-03-26T12:32:17;99864.72;;;8.76;100.00
60244;BME280;46106;51.468;5.814;2023-03-26T12:34:43;99871.34;;;8.83;100.00
60244;BME280;46106;51.468;5.814;2023-03-26T12:37:35;99874.97;;;8.84;100.00
60244;BME280;46106;51.468;5.814;2023-03-26T12:42:52;99873.88;;;8.54;100.00
60244;BME280;46106;51.468;5.814;2023-03-26T12:45:26;99878.28;;;8.45;100.00
60244;BME280;46106;51.468;5.814;2023-03-26T12:47:53;99876.34;;;8.57;100.00
60244;BME280;46106;51.468;5.814;2023-03-26T12:50:23;99882.13;;;8.64;100.00
60244;BME280;46106;51.468;5.814;2023-03-26T12:53:01;99878.50;;;8.54;100.00
60244;BME280;46106;51.468;5.814;2023-03-26T12:55:39;99885.34;;;8.48;100.00
60244;BME280;46106;51.468;5.814;2023-03-26T13:01:35;99893.34;;;8.28;100.00
60244;BME280;46106;51.468;5.814;2023-03-26T13:04:29;99898.34;;;8.23;100.00
60244;BME280;46106;51.468;5.814;2023-03-26T13:07:24;99892.78;;;8.46;100.00
60244;BME280;46106;51.468;5.814;2023-03-26T13:15:34;99892.00;;;8.97;100.00
60244;BME280;46106;51.468;5.814;2023-03-26T13:31:28;99906.06;;;9.24;100.00
60244;BME280;46106;51.468;5.814;2023-03-26T13:34:10;99901.09;;;9.38;100.00
60244;BME280;46106;51.468;5.814;2023-03-26T13:49:35;99909.06;;;9.20;100.00
60244;BME280;46106;51.468;5.814;2023-03-26T13:52:07;99907.97;;;9.02;100.00
60244;BME280;46106;51.468;5.814;2023-03-26T13:55:33;99898.31;;;8.98;100.00
60244;BME280;46106;51.468;5.814;2023-03-26T13:57:40;99913.81;;;8.97;100.00
60244;BME280;46106;51.468;5.814;2023-03-26T14:00:26;99924.75;;;8.97;100.00
60244;BME280;46106;51.468;5.814;2023-03-26T14:03:23;99913.03;;;8.86;100.00
60244;BME280;46106;51.468;5.814;2023-03-26T14:05:53;99906.75;;;8.74;100.00
60244;BME280;46106;51.468;5.814;2023-03-26T14:08:32;99917.69;;;8.74;100.00
60244;BME280;46106;51.468;5.814;2023-03-26T14:11:06;99933.19;;;8.73;100.00
60244;BME280;46106;51.468;5.814;2023-03-26T14:13:46;99933.47;;;8.70;100.00
60244;BME280;46106;51.468;5.814;2023-03-26T14:16:22;99933.84;;;8.65;100.00
60244;BME280;46106;51.468;5.814;2023-03-26T14:19:17;99936.50;;;8.56;100.00
60244;BME280;46106;51.468;5.814;2023-03-26T14:24:33;99941.31;;;8.63;100.00
60244;BME280;46106;51.468;5.814;2023-03-26T14:35:35;99955.69;;;8.87;100.00
60244;BME280;46106;51.468;5.814;2023-03-26T14:41:18;99970.28;;;8.76;100.00
60244;BME280;46106;51.468;5.814;2023-03-26T14:47:16;99985.44;;;8.69;100.00
60244;BME280;46106;51.468;5.814;2023-03-26T14:52:53;99981.56;;;8.50;100.00
60244;BME280;46106;51.468;5.814;2023-03-26T15:09:37;100024.28;;;8.17;100.00
60244;BME280;46106;51.468;5.814;2023-03-26T15:43:12;100072.44;;;8.39;100.00
60244;BME280;46106;51.468;5.814;2023-03-26T16:01:46;100116.31;;;8.59;100.00
60244;BME280;46106;51.468;5.814;2023-03-26T16:09:53;100128.88;;;8.16;100.00
60244;BME280;46106;51.468;5.814;2023-03-26T16:21:03;100146.47;;;8.12;100.00
60244;BME280;46106;51.468;5.814;2023-03-26T16:28:34;100149.22;;;8.23;100.00
60244;BME280;46106;51.468;5.814;2023-03-26T16:31:21;100174.84;;;8.09;100.00
60244;BME280;46106;51.468;5.814;2023-03-26T16:36:34;100187.97;;;8.04;100.00
60244;BME280;46106;51.468;5.814;2023-03-26T16:39:21;100199.13;;;8.13;100.00
60244;BME280;46106;51.468;5.814;2023-03-26T16:47:24;100208.53;;;7.97;100.00
60244;BME280;46106;51.468;5.814;2023-03-26T16:50:25;100222.22;;;8.08;100.00
60244;BME280;46106;51.468;5.814;2023-03-26T16:53:14;100213.50;;;8.03;100.00
60244;BME280;46106;51.468;5.814;2023-03-26T16:55:58;100230.47;;;7.96;100.00
60244;BME280;46106;51.468;5.814;2023-03-26T17:01:06;100239.41;;;7.98;100.00
60244;BME280;46106;51.468;5.814;2023-03-26T17:03:53;100257.97;;;7.93;100.00
60244;BME280;46106;51.468;5.814;2023-03-26T17:12:27;100282.81;;;7.77;100.00
60244;BME280;46106;51.468;5.814;2023-03-26T17:20:59;100300.38;;;7.48;100.00
60244;BME280;46106;51.468;5.814;2023-03-26T17:42:25;100367.31;;;7.40;100.00
60244;BME280;46106;51.468;5.814;2023-03-26T17:45:15;100374.28;;;7.31;100.00
60244;BME280;46106;51.468;5.814;2023-03-26T17:50:36;100381.72;;;7.29;100.00
60244;BME280;46106;51.468;5.814;2023-03-26T17:53:30;100387.06;;;7.17;100.00
60244;BME280;46106;51.468;5.814;2023-03-26T17:56:02;100395.03;;;7.21;100.00
60244;BME280;46106;51.468;5.814;2023-03-26T17:58:30;100412.78;;;7.13;100.00
60244;BME280;46106;51.468;5.814;2023-03-26T18:01:13;100421.06;;;7.25;100.00
60244;BME280;46106;51.468;5.814;2023-03-26T18:04:28;100415.09;;;7.07;100.00
60244;BME280;46106;51.468;5.814;2023-03-26T18:13:26;100444.81;;;6.97;100.00
60244;BME280;46106;51.468;5.814;2023-03-26T18:16:11;100450.47;;;6.94;100.00
60244;BME280;46106;51.468;5.814;2023-03-26T18:19:14;100456.97;;;6.91;100.00
60244;BME280;46106;51.468;5.814;2023-03-26T18:21:37;100466.03;;;6.79;100.00
60244;BME280;46106;51.468;5.814;2023-03-26T18:24:06;100471.34;;;6.93;100.00
60244;BME280;46106;51.468;5.814;2023-03-26T18:26:41;100476.13;;;6.77;100.00
60244;BME280;46106;51.468;5.814;2023-03-26T18:29:18;100479.88;;;6.89;100.00
60244;BME280;46106;51.468;5.814;2023-03-26T18:31:45;100489.72;;;6.77;100.00
60244;BME280;46106;51.468;5.814;2023-03-26T18:34:15;100481.78;;;6.87;100.00
60244;BME280;46106;51.468;5.814;2023-03-26T18:39:55;100496.78;;;6.67;100.00
60244;BME280;46106;51.468;5.814;2023-03-26T18:42:22;100483.25;;;6.52;100.00
60244;BME280;46106;51.468;5.814;2023-03-26T18:44:48;100498.19;;;6.59;100.00
60244;BME280;46106;51.468;5.814;2023-03-26T18:47:18;100497.19;;;6.60;100.00
60244;BME280;46106;51.468;5.814;2023-03-26T18:49:46;100523.69;;;6.71;100.00